createdAt,value
2016-10-07T11:26:21.407Z,40.66
2016-10-07T11:27:30.792Z,39.22
2016-10-07T11:27:53.859Z,37.41
2016-10-07T11:29:03.235Z,35.38
2016-10-07T11:30:13.110Z,34.52
2016-10-07T11:31:23.195Z,34.44
2016-10-07T11:32:32.244Z,33.95
2016-10-07T11:33:41.695Z,34.63
2016-10-07T11:34:51.385Z,34.05
2016-10-07T11:36:01.476Z,34.44
2016-10-07T11:37:11.394Z,32.89
2016-10-07T11:38:21.082Z,32.7
2016-10-07T11:39:30.944Z,32.31
2016-10-07T11:40:40.372Z,32.6
2016-10-07T11:41:50.835Z,32.99
2016-10-07T11:43:00.300Z,34.34
2016-10-07T11:44:09.952Z,34.45
2016-10-07T11:45:19.356Z,33.68
2016-10-07T11:46:28.390Z,33
2016-10-07T11:47:37.539Z,32.04
2016-10-07T11:48:48.058Z,31.85
2016-10-07T11:49:58.396Z,31.86
2016-10-07T11:51:07.827Z,31.65
2016-10-07T11:52:18.305Z,31.75
2016-10-07T11:53:27.933Z,31.17
2016-10-07T11:54:38.538Z,31.48
2016-10-07T11:55:49.199Z,31.56
2016-10-07T11:56:59.010Z,31.46
2016-10-07T11:58:09.194Z,31.65
2016-10-07T11:59:19.164Z,31.65
2016-10-07T12:00:30.952Z,31.37
2016-10-07T12:01:40.952Z,31.56
2016-10-07T12:02:50.524Z,31.07
2016-10-07T12:04:01.289Z,31.56
2016-10-07T12:05:11.060Z,31.07
2016-10-07T12:06:22.059Z,31.56
2016-10-07T12:07:32.192Z,31.65
2016-10-07T12:08:42.123Z,31.65
2016-10-07T12:09:53.604Z,31.65
2016-10-07T12:11:04.117Z,31.65
2016-10-07T12:12:14.070Z,31.46
2016-10-07T12:13:24.228Z,31.75
2016-10-07T12:14:34.119Z,31.85
2016-10-07T12:15:44.936Z,31.85
2016-10-07T12:16:55.597Z,31.85
2016-10-07T12:18:05.511Z,31.85
2016-10-07T12:19:15.184Z,31.65
2016-10-07T12:20:25.370Z,31.56
2016-10-07T12:21:35.297Z,31.56
2016-10-07T12:22:45.064Z,31.37
2016-10-07T12:23:55.715Z,31.37
2016-10-07T12:25:05.943Z,31.17
2016-10-07T12:26:16.034Z,31.46
2016-10-07T12:27:25.372Z,31.75
2016-10-07T12:28:35.080Z,31.75
2016-10-07T12:29:44.959Z,31.75
2016-10-07T12:30:56.310Z,31.65
2016-10-07T12:32:07.705Z,31.75
2016-10-07T12:33:17.899Z,31.85
2016-10-07T12:34:28.448Z,31.85
2016-10-07T12:35:38.840Z,31.56
2016-10-07T12:36:48.934Z,31.75
2016-10-07T12:37:59.386Z,31.65
2016-10-07T12:39:09.539Z,32.04
2016-10-07T12:40:20.245Z,31.85
2016-10-07T12:41:30.609Z,31.76
2016-10-07T12:42:41.422Z,31.57
2016-10-07T12:43:51.770Z,31.38
2016-10-07T12:45:01.872Z,32.06
2016-10-07T12:46:12.825Z,31.86
2016-10-07T12:47:23.728Z,31.76
2016-10-07T12:48:37.044Z,31.67
2016-10-07T12:49:51.196Z,31.76
2016-10-07T12:51:02.895Z,31.48
2016-10-07T12:52:14.496Z,30.7
2016-10-07T12:53:24.185Z,30.82
2016-10-07T12:54:34.338Z,30.72
2016-10-07T12:55:45.267Z,30.8
2016-10-07T12:56:57.731Z,30.9
2016-10-07T12:58:08.656Z,30.7
2016-10-07T12:59:19.026Z,31.18
2016-10-07T13:00:29.358Z,31.18
